createdAt,value
2018-09-21T00:01:36.062Z,20.90
2018-09-21T00:03:39.708Z,20.90
2018-09-21T00:05:43.284Z,20.80
2018-09-21T00:07:46.902Z,20.70
2018-09-21T00:09:50.549Z,20.60
2018-09-21T00:11:54.210Z,20.50
2018-09-21T00:13:57.776Z,20.40
2018-09-21T00:16:01.311Z,20.40
2018-09-21T00:18:04.884Z,20.50
2018-09-21T00:20:08.729Z,20.50
2018-09-21T00:22:12.320Z,20.40
2018-09-21T00:24:15.895Z,20.30
2018-09-21T00:26:19.663Z,20.40
2018-09-21T00:28:23.261Z,20.50
2018-09-21T00:30:26.904Z,20.50
2018-09-21T00:32:30.717Z,20.60
2018-09-21T00:34:34.283Z,20.50
2018-09-21T00:36:37.899Z,20.50
2018-09-21T00:38:41.533Z,20.50
2018-09-21T00:40:45.131Z,20.20
2018-09-21T00:42:48.841Z,19.80
2018-09-21T00:44:52.662Z,19.80
2018-09-21T00:46:56.309Z,20.00
2018-09-21T00:48:59.901Z,20.10
2018-09-21T00:51:03.448Z,20.10
2018-09-21T00:53:07.535Z,20.20
2018-09-21T00:55:11.137Z,20.20
2018-09-21T00:57:14.837Z,19.90
2018-09-21T00:59:18.469Z,20.00
2018-09-21T01:01:22.134Z,20.00
2018-09-21T01:03:25.905Z,20.00
2018-09-21T01:05:29.491Z,20.20
2018-09-21T01:07:33.094Z,20.10
2018-09-21T01:09:36.673Z,20.10
2018-09-21T01:11:40.691Z,20.10
2018-09-21T01:13:44.304Z,20.10
2018-09-21T01:15:48.098Z,20.00
2018-09-21T01:17:51.775Z,19.90
2018-09-21T01:19:55.397Z,19.90
2018-09-21T01:21:59.008Z,20.00
2018-09-21T01:24:02.674Z,20.00
2018-09-21T01:26:06.296Z,17.70
2018-09-21T01:28:09.875Z,19.80
2018-09-21T01:30:13.700Z,19.90
2018-09-21T01:32:17.322Z,20.00
2018-09-21T01:34:20.883Z,20.10
2018-09-21T01:36:24.410Z,20.20
2018-09-21T01:38:28.217Z,20.20
2018-09-21T01:40:31.781Z,20.00
2018-09-21T01:42:35.308Z,20.00
2018-09-21T01:44:38.934Z,20.00
2018-09-21T01:46:42.553Z,19.90
2018-09-21T01:48:46.093Z,19.60
2018-09-21T01:50:49.743Z,19.60
2018-09-21T01:52:53.281Z,19.70
2018-09-21T01:54:56.875Z,19.70
2018-09-21T01:57:00.415Z,19.80
2018-09-21T01:59:03.999Z,19.70
2018-09-21T02:01:07.871Z,19.80
2018-09-21T02:03:11.439Z,19.80
2018-09-21T02:05:15.088Z,19.80
2018-09-21T02:07:18.701Z,19.70
2018-09-21T02:09:22.465Z,19.70
2018-09-21T02:11:26.122Z,19.40
2018-09-21T02:13:29.719Z,19.20
2018-09-21T02:15:33.302Z,19.00
2018-09-21T02:17:36.873Z,19.10
2018-09-21T02:19:40.543Z,19.20
2018-09-21T02:21:44.224Z,19.30
2018-09-21T02:23:47.815Z,19.20
2018-09-21T02:25:51.426Z,19.20
2018-09-21T02:27:55.024Z,19.30
2018-09-21T02:29:58.625Z,19.40
2018-09-21T02:32:02.343Z,19.40
2018-09-21T02:34:06.282Z,19.30
2018-09-21T02:36:09.917Z,18.90
2018-09-21T02:38:13.681Z,19.00
2018-09-21T02:40:17.298Z,18.80
2018-09-21T02:42:21.062Z,18.90
2018-09-21T02:44:24.629Z,19.00
2018-09-21T02:46:28.324Z,18.90
2018-09-21T02:48:32.129Z,18.80
2018-09-21T02:50:35.679Z,18.90
2018-09-21T02:52:39.252Z,19.00
2018-09-21T02:54:42.931Z,19.00
2018-09-21T02:56:46.654Z,19.10
2018-09-21T02:58:56.938Z,19.10
2018-09-21T03:01:00.560Z,19.10
2018-09-21T03:03:04.203Z,19.00
2018-09-21T03:05:07.798Z,19.10
2018-09-21T03:07:11.551Z,19.00
2018-09-21T03:09:15.144Z,19.00
2018-09-21T03:11:18.764Z,19.10
2018-09-21T03:13:22.412Z,19.00
2018-09-21T03:15:25.915Z,19.10
2018-09-21T03:17:29.646Z,19.10
2018-09-21T03:19:33.240Z,19.10
2018-09-21T03:21:36.775Z,19.20
2018-09-21T03:23:40.455Z,19.20
2018-09-21T03:25:44.065Z,19.20
2018-09-21T03:27:47.758Z,19.20
2018-09-21T03:29:51.333Z,19.00
2018-09-21T03:31:54.847Z,18.90
2018-09-21T03:33:58.427Z,18.80
2018-09-21T03:36:01.959Z,18.90
2018-09-21T03:38:05.740Z,18.90
2018-09-21T03:40:09.303Z,18.80
2018-09-21T03:42:12.887Z,18.70
2018-09-21T03:44:16.492Z,18.70
2018-09-21T03:46:20.075Z,18.50
2018-09-21T03:48:23.624Z,18.10
2018-09-21T03:50:27.253Z,18.10
2018-09-21T03:52:30.886Z,18.00
2018-09-21T03:54:34.482Z,17.90
2018-09-21T03:56:38.610Z,18.00
2018-09-21T03:58:42.255Z,18.10
2018-09-21T04:00:45.865Z,18.10
2018-09-21T04:02:49.500Z,18.20
2018-09-21T04:04:53.239Z,18.20
2018-09-21T04:06:56.787Z,18.30
2018-09-21T04:09:00.482Z,18.40
2018-09-21T04:11:04.117Z,18.50
2018-09-21T04:13:07.816Z,18.60
2018-09-21T04:15:11.353Z,18.60
2018-09-21T04:17:15.186Z,18.60
2018-09-21T04:19:18.742Z,18.60
2018-09-21T04:21:22.360Z,18.50
2018-09-21T04:23:25.971Z,18.60
2018-09-21T04:25:30.221Z,18.50
2018-09-21T04:27:33.832Z,18.60
2018-09-21T04:29:37.468Z,18.60
2018-09-21T04:31:41.095Z,18.60
2018-09-21T04:33:44.714Z,18.70
2018-09-21T04:35:48.463Z,18.70
2018-09-21T04:37:52.490Z,18.70
2018-09-21T04:39:56.072Z,18.70
2018-09-21T04:41:59.605Z,18.70
2018-09-21T04:44:03.378Z,18.60
2018-09-21T04:46:06.871Z,18.50
2018-09-21T04:48:10.421Z,18.20
2018-09-21T04:50:14.015Z,18.20
2018-09-21T04:52:17.583Z,18.40
2018-09-21T04:54:22.120Z,18.40
2018-09-21T04:56:25.785Z,18.40
2018-09-21T04:58:29.305Z,18.40
2018-09-21T05:00:32.955Z,18.30
2018-09-21T05:02:36.602Z,18.20
2018-09-21T05:04:40.136Z,18.10
2018-09-21T05:06:43.656Z,18.20
2018-09-21T05:08:47.371Z,18.30
2018-09-21T05:10:50.940Z,18.20
2018-09-21T05:12:54.491Z,18.20
2018-09-21T05:14:58.025Z,18.20
2018-09-21T05:17:01.604Z,18.20
2018-09-21T05:19:05.504Z,18.10
2018-09-21T05:21:08.999Z,17.90
2018-09-21T05:23:12.531Z,17.50
2018-09-21T05:25:16.140Z,17.30
2018-09-21T05:27:19.648Z,17.10
2018-09-21T05:29:23.156Z,16.80
2018-09-21T05:31:26.646Z,17.10
2018-09-21T05:33:30.190Z,17.40
2018-09-21T05:35:33.938Z,17.50
2018-09-21T05:37:37.445Z,17.70
2018-09-21T05:39:41.019Z,17.70
2018-09-21T05:41:44.796Z,17.70
2018-09-21T05:43:48.515Z,17.80
2018-09-21T05:45:52.002Z,17.90
2018-09-21T05:47:55.498Z,17.70
2018-09-21T05:49:59.001Z,17.70
2018-09-21T05:52:02.730Z,17.70
2018-09-21T05:54:06.363Z,17.60
2018-09-21T05:56:09.963Z,17.60
2018-09-21T05:58:13.489Z,17.40
2018-09-21T06:00:17.722Z,17.50
2018-09-21T06:02:21.480Z,17.20
2018-09-21T06:04:24.967Z,17.30
2018-09-21T06:06:28.480Z,17.30
2018-09-21T06:08:32.134Z,17.60
2018-09-21T06:10:35.648Z,17.80
2018-09-21T06:12:39.214Z,17.80
2018-09-21T06:14:42.720Z,18.00
2018-09-21T06:16:46.236Z,18.30
2018-09-21T06:18:49.916Z,18.10
2018-09-21T06:20:53.468Z,18.30
2018-09-21T06:22:56.971Z,18.50
2018-09-21T06:25:00.483Z,18.40
2018-09-21T06:27:04.173Z,18.20
2018-09-21T06:29:07.730Z,18.30
2018-09-21T06:31:11.222Z,18.70
2018-09-21T06:33:14.870Z,18.20
2018-09-21T06:35:18.367Z,17.80
2018-09-21T06:37:21.907Z,17.70
2018-09-21T06:39:25.445Z,17.50
2018-09-21T06:41:28.933Z,17.70
2018-09-21T06:43:32.460Z,18.10
2018-09-21T06:45:36.072Z,18.70
2018-09-21T06:47:39.639Z,19.10
2018-09-21T06:49:43.272Z,19.50
2018-09-21T06:51:46.794Z,19.70
2018-09-21T06:53:50.512Z,19.90
2018-09-21T06:55:54.107Z,20.10
2018-09-21T06:57:57.629Z,20.10
2018-09-21T07:00:01.167Z,20.00
2018-09-21T07:02:04.792Z,20.10
2018-09-21T07:04:08.488Z,20.20
2018-09-21T07:06:12.011Z,20.30
2018-09-21T07:08:15.531Z,20.40
2018-09-21T07:10:19.186Z,20.50
2018-09-21T07:12:22.756Z,20.60
2018-09-21T07:14:26.476Z,20.50
2018-09-21T07:16:30.084Z,20.60
2018-09-21T07:18:33.679Z,20.70
2018-09-21T07:20:37.262Z,20.30
2018-09-21T07:22:40.750Z,20.30
2018-09-21T07:24:44.343Z,20.50
2018-09-21T07:26:47.839Z,20.60
2018-09-21T07:28:51.411Z,20.80
2018-09-21T07:30:55.032Z,20.90
2018-09-21T07:32:58.492Z,21.10
2018-09-21T07:35:02.045Z,21.20
2018-09-21T07:37:05.559Z,21.30
2018-09-21T07:39:09.180Z,21.40
2018-09-21T07:41:12.792Z,21.50
2018-09-21T07:43:16.272Z,21.60
2018-09-21T07:45:19.985Z,21.60
2018-09-21T07:47:23.500Z,21.70
2018-09-21T07:49:27.059Z,21.80
2018-09-21T07:51:30.988Z,21.80
2018-09-21T07:53:34.553Z,21.90
2018-09-21T07:55:38.223Z,22.00
2018-09-21T07:57:41.997Z,22.10
2018-09-21T07:59:45.555Z,22.10
2018-09-21T08:01:49.078Z,22.10
2018-09-21T08:03:52.680Z,22.00
2018-09-21T08:05:56.211Z,22.00
2018-09-21T08:08:00.165Z,22.20
2018-09-21T08:10:03.810Z,21.90
2018-09-21T08:12:07.475Z,22.20
2018-09-21T08:14:11.070Z,22.40
2018-09-21T08:16:14.963Z,22.70
2018-09-21T08:18:18.499Z,22.80
2018-09-21T08:20:22.008Z,22.80
2018-09-21T08:22:25.552Z,23.00
2018-09-21T08:24:29.052Z,23.20
2018-09-21T08:26:33.008Z,23.20
2018-09-21T08:28:36.569Z,23.30
2018-09-21T08:30:40.127Z,23.50
2018-09-21T08:32:43.642Z,23.70
2018-09-21T08:34:47.158Z,23.40
2018-09-21T08:36:50.679Z,23.70
2018-09-21T08:38:54.528Z,23.90
2018-09-21T08:40:58.036Z,24.00
2018-09-21T08:43:04.956Z,24.20
2018-09-21T08:45:08.630Z,24.10
2018-09-21T08:47:12.195Z,24.60
2018-09-21T08:49:15.730Z,24.40
2018-09-21T08:51:19.310Z,24.30
2018-09-21T08:53:22.905Z,24.90
2018-09-21T08:55:26.460Z,25.20
2018-09-21T08:57:29.985Z,25.60
2018-09-21T08:59:33.485Z,25.60
2018-09-21T09:01:37.017Z,25.80
2018-09-21T09:03:40.555Z,25.90
2018-09-21T09:05:48.540Z,26.10
2018-09-21T09:07:52.342Z,26.10
2018-09-21T09:09:56.027Z,26.00
2018-09-21T09:11:59.653Z,26.00
2018-09-21T09:14:03.184Z,26.40
2018-09-21T09:16:06.738Z,26.70
2018-09-21T09:18:10.437Z,26.70
2018-09-21T09:20:14.117Z,26.80
2018-09-21T09:22:17.639Z,26.50
2018-09-21T09:24:21.137Z,26.10
2018-09-21T09:26:24.652Z,25.90
2018-09-21T09:28:28.178Z,26.00
2018-09-21T09:30:31.860Z,25.90
2018-09-21T09:32:35.450Z,26.30
2018-09-21T09:34:39.222Z,26.40
2018-09-21T09:36:42.935Z,26.30
2018-09-21T09:38:46.456Z,26.30
2018-09-21T09:40:50.114Z,26.20
2018-09-21T09:42:53.711Z,26.00
2018-09-21T09:44:57.306Z,26.40
2018-09-21T09:47:00.996Z,26.40
2018-09-21T09:49:04.642Z,26.70
2018-09-21T09:51:08.161Z,26.50
2018-09-21T09:53:11.805Z,26.30
2018-09-21T09:55:15.440Z,26.20
2018-09-21T09:57:19.054Z,26.20
2018-09-21T09:59:22.742Z,26.10
2018-09-21T10:01:26.264Z,26.20
2018-09-21T10:03:29.860Z,26.30
2018-09-21T10:05:33.322Z,26.10
2018-09-21T10:07:36.891Z,26.20
2018-09-21T10:09:40.603Z,26.40
2018-09-21T10:11:44.111Z,26.30
2018-09-21T10:13:47.625Z,26.70
2018-09-21T10:15:51.293Z,26.70
2018-09-21T10:17:54.818Z,26.80
2018-09-21T10:19:58.808Z,26.70
2018-09-21T10:22:02.316Z,26.90
2018-09-21T10:24:05.916Z,27.20
2018-09-21T10:26:09.556Z,26.70
2018-09-21T10:28:13.343Z,26.30
2018-09-21T10:30:16.830Z,25.70
2018-09-21T10:32:20.430Z,25.80
2018-09-21T10:34:23.943Z,25.90
2018-09-21T10:36:27.525Z,26.00
2018-09-21T10:38:30.992Z,26.30
2018-09-21T10:40:34.734Z,26.60
2018-09-21T10:42:38.378Z,26.20
2018-09-21T10:44:41.767Z,26.50
2018-09-21T10:46:45.378Z,26.60
2018-09-21T10:48:48.915Z,26.30
2018-09-21T10:50:52.494Z,26.10
2018-09-21T10:52:56.054Z,26.60
2018-09-21T10:54:59.587Z,26.80
2018-09-21T10:57:03.303Z,26.90
2018-09-21T10:59:07.077Z,26.70
2018-09-21T11:01:10.589Z,26.90
2018-09-21T11:03:14.116Z,26.80
2018-09-21T11:05:17.823Z,26.90
2018-09-21T11:07:21.524Z,27.10
2018-09-21T11:09:25.082Z,27.30
2018-09-21T11:11:28.585Z,27.30
2018-09-21T11:13:32.098Z,27.40
2018-09-21T11:15:35.752Z,27.60
2018-09-21T11:17:40.133Z,27.40
2018-09-21T11:19:43.759Z,27.30
2018-09-21T11:21:47.344Z,27.30
2018-09-21T11:23:51.021Z,27.70
2018-09-21T11:25:54.547Z,27.70
2018-09-21T11:27:58.122Z,27.80
2018-09-21T11:30:01.649Z,27.60
2018-09-21T11:32:05.302Z,27.90
2018-09-21T11:34:08.879Z,28.40
2018-09-21T11:36:12.439Z,28.40
2018-09-21T11:38:16.030Z,28.50
2018-09-21T11:40:19.527Z,28.20
2018-09-21T11:42:23.044Z,28.60
2018-09-21T11:44:26.793Z,28.20
2018-09-21T11:46:30.462Z,28.10
2018-09-21T11:48:34.036Z,27.90
2018-09-21T11:50:37.554Z,27.60
2018-09-21T11:52:41.095Z,28.20
2018-09-21T11:54:44.853Z,28.60
2018-09-21T11:56:48.371Z,28.40
2018-09-21T11:58:51.872Z,28.40
2018-09-21T12:00:55.436Z,28.00
2018-09-21T12:02:58.932Z,28.00
2018-09-21T12:05:02.560Z,28.10
2018-09-21T12:07:06.094Z,28.40
2018-09-21T12:09:09.676Z,28.20
2018-09-21T12:11:13.312Z,28.10
2018-09-21T12:13:16.847Z,28.10
2018-09-21T12:15:20.455Z,28.20
2018-09-21T12:17:24.117Z,28.60
2018-09-21T12:19:27.623Z,28.80
2018-09-21T12:21:31.188Z,29.10
2018-09-21T12:23:34.753Z,28.80
2018-09-21T12:25:38.300Z,28.40
2018-09-21T12:27:41.832Z,28.70
2018-09-21T12:29:45.396Z,29.10
2018-09-21T12:31:48.876Z,29.40
2018-09-21T12:33:52.376Z,29.30
2018-09-21T12:35:56.025Z,29.00
2018-09-21T12:37:59.665Z,28.90
2018-09-21T12:40:03.380Z,28.50
2018-09-21T12:42:06.927Z,28.40
2018-09-21T12:44:11.619Z,28.60
2018-09-21T12:46:19.833Z,28.40
2018-09-21T12:48:23.303Z,28.40
2018-09-21T12:50:27.263Z,28.60
2018-09-21T12:52:30.776Z,28.60
2018-09-21T12:54:34.356Z,28.30
2018-09-21T12:56:37.940Z,28.40
2018-09-21T12:58:41.504Z,28.10
2018-09-21T13:00:50.754Z,27.70
2018-09-21T13:02:54.229Z,28.30
2018-09-21T13:04:57.841Z,28.60
2018-09-21T13:07:01.679Z,28.70
2018-09-21T13:09:06.712Z,28.70
2018-09-21T13:11:10.324Z,28.60
2018-09-21T13:13:13.944Z,28.40
2018-09-21T13:15:17.528Z,28.70
2018-09-21T13:17:21.021Z,28.80
2018-09-21T13:19:24.599Z,28.80
2018-09-21T13:21:28.210Z,28.90
2018-09-21T13:23:31.915Z,28.50
2018-09-21T13:25:35.544Z,28.50
2018-09-21T13:27:39.024Z,28.30
2018-09-21T13:29:42.572Z,28.50
2018-09-21T13:31:46.144Z,28.50
2018-09-21T13:33:49.784Z,28.90
2018-09-21T13:35:53.360Z,28.70
2018-09-21T13:37:57.068Z,28.90
2018-09-21T13:40:00.564Z,28.90
2018-09-21T13:42:04.207Z,28.50
2018-09-21T13:44:08.064Z,28.60
2018-09-21T13:46:11.673Z,28.50
2018-09-21T13:48:15.412Z,28.20
2018-09-21T13:50:19.027Z,28.30
2018-09-21T13:52:22.540Z,28.30
2018-09-21T13:54:26.074Z,27.80
2018-09-21T13:56:29.613Z,26.00
2018-09-21T13:58:33.139Z,25.10
2018-09-21T14:00:36.764Z,24.80
2018-09-21T14:02:41.271Z,24.60
2018-09-21T14:04:44.963Z,24.10
2018-09-21T14:06:48.769Z,23.50
2018-09-21T14:08:52.307Z,23.10
2018-09-21T14:10:56.009Z,22.60
2018-09-21T14:12:59.542Z,22.40
2018-09-21T14:15:03.419Z,22.40
2018-09-21T14:17:07.182Z,23.00
2018-09-21T14:19:10.730Z,23.40
2018-09-21T14:21:14.312Z,23.90
2018-09-21T14:23:17.807Z,24.10
2018-09-21T14:25:21.625Z,24.10
2018-09-21T14:27:25.265Z,23.90
2018-09-21T14:29:28.811Z,24.20
2018-09-21T14:31:32.348Z,24.10
2018-09-21T14:33:35.947Z,24.00
2018-09-21T14:35:39.502Z,24.00
2018-09-21T14:37:43.017Z,23.70
2018-09-21T14:39:46.681Z,23.00
2018-09-21T14:41:50.254Z,23.30
2018-09-21T14:43:53.976Z,22.60
2018-09-21T14:45:57.563Z,22.60
2018-09-21T14:48:01.104Z,22.20
2018-09-21T14:50:04.888Z,22.00
2018-09-21T14:52:08.565Z,22.20
2018-09-21T14:54:12.096Z,22.30
2018-09-21T14:56:15.731Z,21.90
2018-09-21T14:58:19.343Z,22.10
2018-09-21T15:00:22.855Z,22.30
2018-09-21T15:02:26.369Z,22.30
2018-09-21T15:04:30.018Z,22.40
2018-09-21T15:06:33.579Z,22.00
2018-09-21T15:08:37.167Z,22.30
2018-09-21T15:10:40.690Z,22.40
2018-09-21T15:12:44.499Z,23.10
2018-09-21T15:14:48.197Z,23.10
2018-09-21T15:16:51.720Z,23.20
2018-09-21T15:18:55.281Z,23.10
2018-09-21T15:20:59.331Z,23.30
2018-09-21T15:23:03.032Z,23.70
2018-09-21T15:25:06.566Z,23.90
2018-09-21T15:27:10.075Z,24.00
2018-09-21T15:29:13.620Z,24.00
2018-09-21T15:31:17.356Z,24.00
2018-09-21T15:33:21.131Z,24.20
2018-09-21T15:35:24.680Z,24.40
2018-09-21T15:37:28.387Z,24.60
2018-09-21T15:39:31.906Z,24.60
2018-09-21T15:41:35.420Z,24.70
2018-09-21T15:43:39.189Z,24.40
2018-09-21T15:45:42.628Z,24.40
2018-09-21T15:47:46.168Z,24.20
2018-09-21T15:49:49.918Z,24.00
2018-09-21T15:51:53.451Z,24.10
2018-09-21T15:53:57.012Z,24.30
2018-09-21T15:56:00.755Z,24.30
2018-09-21T15:58:04.430Z,24.30
2018-09-21T16:00:08.151Z,24.20
2018-09-21T16:02:11.858Z,24.30
2018-09-21T16:04:15.366Z,24.10
2018-09-21T16:06:18.987Z,24.20
2018-09-21T16:08:22.889Z,24.20
2018-09-21T16:10:26.452Z,24.10
2018-09-21T16:12:30.007Z,24.30
2018-09-21T16:14:33.500Z,24.50
2018-09-21T16:16:38.039Z,24.40
2018-09-21T16:18:41.554Z,24.50
2018-09-21T16:20:45.071Z,24.50
2018-09-21T16:22:48.870Z,24.60
2018-09-21T16:24:52.493Z,24.60
2018-09-21T16:26:56.170Z,24.40
2018-09-21T16:28:59.714Z,24.30
2018-09-21T16:31:03.245Z,24.20
2018-09-21T16:33:06.888Z,24.00
2018-09-21T16:35:10.437Z,24.00
2018-09-21T16:37:14.140Z,24.20
2018-09-21T16:39:17.747Z,24.30
2018-09-21T16:41:21.202Z,24.20
2018-09-21T16:43:24.868Z,24.40
2018-09-21T16:45:28.387Z,24.40
2018-09-21T16:47:31.904Z,24.40
2018-09-21T16:49:35.496Z,23.90
2018-09-21T16:51:39.249Z,22.10
2018-09-21T16:53:42.756Z,20.60
2018-09-21T16:55:46.469Z,20.00
2018-09-21T16:57:50.125Z,19.30
2018-09-21T16:59:53.752Z,18.60
2018-09-21T17:01:57.277Z,18.30
2018-09-21T17:04:00.792Z,18.10
2018-09-21T17:06:04.444Z,17.60
2018-09-21T17:08:07.977Z,18.00
2018-09-21T17:10:11.543Z,17.40
2018-09-21T17:12:15.309Z,16.90
2018-09-21T17:14:18.850Z,16.70
2018-09-21T17:16:22.393Z,17.00
2018-09-21T17:18:25.906Z,17.30
2018-09-21T17:20:29.646Z,16.70
2018-09-21T17:22:33.283Z,16.70
2018-09-21T17:24:36.865Z,16.70
2018-09-21T17:26:40.413Z,16.60
2018-09-21T17:28:44.140Z,17.00
2018-09-21T17:30:47.873Z,16.60
2018-09-21T17:32:51.477Z,16.40
2018-09-21T17:34:55.017Z,17.20
2018-09-21T17:36:58.710Z,17.60
2018-09-21T17:39:02.240Z,16.60
2018-09-21T17:41:05.914Z,16.00
2018-09-21T17:43:09.451Z,16.40
2018-09-21T17:45:12.998Z,16.30
2018-09-21T17:47:16.633Z,16.40
2018-09-21T17:49:20.157Z,16.40
2018-09-21T17:51:23.710Z,16.30
2018-09-21T17:53:27.309Z,16.30
2018-09-21T17:55:31.007Z,15.70
2018-09-21T17:57:34.731Z,15.60
2018-09-21T17:59:38.330Z,15.40
2018-09-21T18:01:42.100Z,15.50
2018-09-21T18:03:45.672Z,15.80
2018-09-21T18:05:49.395Z,16.00
2018-09-21T18:07:52.951Z,16.20
2018-09-21T18:09:56.498Z,15.80
2018-09-21T18:12:00.150Z,16.10
2018-09-21T18:14:03.678Z,16.10
2018-09-21T18:16:07.558Z,15.90
2018-09-21T18:18:11.300Z,15.80
2018-09-21T18:20:14.935Z,16.20
2018-09-21T18:22:18.535Z,15.90
2018-09-21T18:24:22.978Z,16.40
2018-09-21T18:26:26.720Z,16.70
2018-09-21T18:28:30.367Z,16.30
2018-09-21T18:30:33.989Z,16.30
2018-09-21T18:32:37.570Z,16.20
2018-09-21T18:34:41.111Z,15.80
2018-09-21T18:36:44.781Z,15.80
2018-09-21T18:38:48.327Z,15.10
2018-09-21T18:40:51.897Z,15.60
2018-09-21T18:42:55.463Z,16.00
2018-09-21T18:44:59.037Z,15.90
2018-09-21T18:47:02.604Z,16.10
2018-09-21T18:49:06.359Z,16.50
2018-09-21T18:51:09.927Z,17.30
2018-09-21T18:53:13.440Z,16.70
2018-09-21T18:55:17.116Z,17.10
2018-09-21T18:57:20.643Z,17.50
2018-09-21T18:59:24.686Z,17.90
2018-09-21T19:01:28.256Z,18.10
2018-09-21T19:03:32.049Z,17.90
2018-09-21T19:05:35.726Z,17.90
2018-09-21T19:07:39.709Z,18.20
2018-09-21T19:09:43.715Z,18.20
2018-09-21T19:11:47.592Z,17.90
2018-09-21T19:13:51.575Z,17.10
2018-09-21T19:15:55.192Z,17.10
2018-09-21T19:17:59.008Z,17.50
2018-09-21T19:20:02.879Z,17.30
2018-09-21T19:22:06.768Z,17.20
2018-09-21T19:24:10.689Z,17.70
2018-09-21T19:26:14.805Z,16.70
2018-09-21T19:28:18.680Z,16.50
2018-09-21T19:30:22.684Z,16.80
2018-09-21T19:32:26.597Z,16.40
2018-09-21T19:34:30.496Z,16.10
2018-09-21T19:36:34.287Z,16.50
2018-09-21T19:38:38.232Z,17.20
2018-09-21T19:40:42.044Z,17.70
2018-09-21T19:42:45.881Z,16.90
2018-09-21T19:44:49.454Z,17.10
2018-09-21T19:46:53.241Z,16.90
2018-09-21T19:48:56.825Z,16.80
2018-09-21T19:51:00.396Z,16.60
2018-09-21T19:53:04.032Z,16.10
2018-09-21T19:55:07.505Z,16.00
2018-09-21T19:57:11.207Z,16.10
2018-09-21T19:59:14.823Z,15.80
2018-09-21T20:01:18.460Z,15.90
2018-09-21T20:03:22.659Z,15.90
2018-09-21T20:05:26.186Z,16.00
2018-09-21T20:07:29.811Z,16.40
2018-09-21T20:09:33.373Z,16.50
2018-09-21T20:11:36.907Z,16.70
2018-09-21T20:13:40.537Z,17.30
2018-09-21T20:15:44.215Z,17.40
2018-09-21T20:17:47.836Z,17.80
2018-09-21T20:19:51.490Z,17.50
2018-09-21T20:21:55.035Z,17.90
2018-09-21T20:23:58.900Z,17.60
2018-09-21T20:26:02.472Z,17.60
2018-09-21T20:28:06.000Z,16.80
2018-09-21T20:30:15.211Z,16.60
2018-09-21T20:32:24.061Z,16.80
2018-09-21T20:34:27.700Z,16.40
2018-09-21T20:36:31.255Z,17.00
2018-09-21T20:38:34.941Z,16.80
2018-09-21T20:40:38.476Z,17.20
2018-09-21T20:42:42.018Z,16.70
2018-09-21T20:44:45.569Z,15.90
2018-09-21T20:46:49.139Z,15.80
2018-09-21T20:48:52.668Z,15.60
2018-09-21T20:50:56.435Z,16.00
2018-09-21T20:52:59.997Z,16.50
2018-09-21T20:55:03.623Z,16.70
2018-09-21T20:57:07.310Z,16.30
2018-09-21T20:59:10.876Z,16.70
2018-09-21T21:01:14.521Z,17.20
2018-09-21T21:03:18.377Z,17.30
2018-09-21T21:05:22.004Z,16.80
2018-09-21T21:07:25.543Z,16.90
2018-09-21T21:09:29.148Z,17.40
2018-09-21T21:11:32.830Z,17.50
2018-09-21T21:13:36.464Z,17.40
2018-09-21T21:15:40.067Z,17.60
2018-09-21T21:17:43.693Z,17.80
2018-09-21T21:19:47.282Z,17.70
2018-09-21T21:21:50.916Z,17.30
2018-09-21T21:23:54.452Z,17.20
2018-09-21T21:25:58.001Z,17.60
2018-09-21T21:28:01.558Z,17.80
2018-09-21T21:30:05.156Z,17.80
2018-09-21T21:32:08.754Z,17.30
2018-09-21T21:34:12.323Z,16.60
2018-09-21T21:36:16.024Z,16.30
2018-09-21T21:38:19.643Z,17.10
2018-09-21T21:40:23.198Z,17.10
2018-09-21T21:42:26.980Z,17.50
2018-09-21T21:44:30.549Z,17.30
2018-09-21T21:46:34.128Z,17.50
2018-09-21T21:48:37.883Z,17.70
2018-09-21T21:50:41.481Z,17.80
2018-09-21T21:52:45.089Z,18.10
2018-09-21T21:54:48.593Z,18.20
2018-09-21T21:56:52.157Z,18.40
2018-09-21T21:58:55.711Z,18.80
2018-09-21T22:01:04.616Z,18.80
2018-09-21T22:03:08.128Z,19.00
2018-09-21T22:05:11.644Z,19.00
2018-09-21T22:07:15.278Z,18.70
2018-09-21T22:09:18.851Z,18.40
2018-09-21T22:11:27.643Z,18.80
2018-09-21T22:13:36.644Z,19.00
2018-09-21T22:15:40.253Z,18.90
2018-09-21T22:17:43.848Z,18.80
2018-09-21T22:19:47.584Z,19.10
2018-09-21T22:21:51.084Z,19.10
2018-09-21T22:23:54.684Z,18.80
2018-09-21T22:25:58.171Z,18.90
2018-09-21T22:28:01.805Z,18.50
2018-09-21T22:30:05.784Z,18.50
2018-09-21T22:32:09.268Z,18.60
2018-09-21T22:34:12.974Z,18.60
2018-09-21T22:36:16.460Z,18.60
2018-09-21T22:38:20.019Z,18.60
2018-09-21T22:40:23.755Z,18.80
2018-09-21T22:42:27.310Z,18.90
2018-09-21T22:44:30.841Z,18.80
2018-09-21T22:46:34.482Z,18.90
2018-09-21T22:48:38.072Z,18.80
2018-09-21T22:50:41.745Z,18.70
2018-09-21T22:52:45.267Z,18.70
2018-09-21T22:54:48.816Z,18.70
2018-09-21T22:56:52.352Z,18.80
2018-09-21T22:58:55.882Z,18.50
2018-09-21T23:01:06.051Z,18.70
2018-09-21T23:03:09.571Z,18.60
2018-09-21T23:05:13.117Z,18.70
2018-09-21T23:07:16.726Z,18.60
2018-09-21T23:09:20.425Z,18.80
2018-09-21T23:11:24.225Z,18.70
2018-09-21T23:13:27.896Z,18.50
2018-09-21T23:15:31.491Z,18.30
2018-09-21T23:17:34.976Z,18.50
2018-09-21T23:19:38.674Z,17.90
2018-09-21T23:21:42.207Z,17.30
2018-09-21T23:23:45.755Z,17.20
2018-09-21T23:25:49.367Z,17.60
2018-09-21T23:27:52.900Z,17.90
2018-09-21T23:29:56.399Z,18.30
2018-09-21T23:31:59.931Z,18.50
2018-09-21T23:34:03.463Z,18.50
2018-09-21T23:36:06.957Z,18.60
2018-09-21T23:38:10.740Z,18.50
2018-09-21T23:40:14.278Z,18.30
2018-09-21T23:42:17.996Z,18.30
2018-09-21T23:44:21.525Z,18.30
2018-09-21T23:46:25.247Z,18.40
2018-09-21T23:48:28.803Z,18.40
2018-09-21T23:50:32.478Z,18.30
2018-09-21T23:52:36.180Z,18.10
2018-09-21T23:54:39.816Z,18.10
2018-09-21T23:56:43.405Z,18.40
2018-09-21T23:58:46.940Z,18.10
